Sunday, December 17, 2017, 4:22 PM EST
Back to Local

KAGC, Pittsburgh Allegheny Cty.

Location: West Mifflin, PA, United States Lat: 40.35
Local Time: 4:22 PM EST (21:22 GMT) Lon: -79.917
Time Zone: US/Eastern Elev: 1253 ft

Show me the last for .
Show Coded

Time T Td Feel RH Dir Speed Gust Alt SLP Vis Weather Sky Remarks
2017-12-17 15:53 39 28 35 64 180° 6 - 30.13 30.17 10 OVC085 None
2017-12-17 14:53 39 27 35 61 170° 6 - 30.10 30.14 10 OVC100 None
2017-12-17 13:53 39 27 36 61 140° 5 - 30.10 30.14 10 FEW120 None
2017-12-17 12:53 39 27 34 61 190° 7 - 30.14 30.18 10 CLR 6-hr Min Temp (1pm): 30.0°F
6-hr Max Temp (1pm): 39.0°F
2017-12-17 11:53 37 27 32 66 180° 6 - 30.16 30.21 10 CLR None
2017-12-17 10:53 36 26 31 66 170° 6 - 30.20 30.24 10 CLR None
2017-12-17 09:53 34 26 28 72 190° 7 - 30.20 30.25 10 CLR None
2017-12-17 08:53 33 25 28 71 170° 6 - 30.18 30.23 10 CLR None
2017-12-17 07:53 30 24 24 78 160° 6 - 30.18 30.23 8 CLR None
2017-12-17 06:53 33 24 30 69 190° 3 - 30.17 30.21 10 CLR 24-hr Precip Total (7am): 0.02"
6-hr Min Temp (7am): 32.0°F
6-hr Max Temp (7am): 34.0°F
2017-12-17 05:53 33 24 26 69 200° 8 - 30.16 30.21 10 CLR None
2017-12-17 04:53 34 24 27 66 200° 9 - 30.15 30.19 10 CLR None
2017-12-17 03:53 34 24 26 66 200° 10 - 30.16 30.20 10 CLR None
2017-12-17 02:53 34 23 27 63 190° 8 - 30.16 30.20 10 CLR None
2017-12-17 01:53 33 23 26 66 200° 8 - 30.15 30.20 10 CLR None
2017-12-17 00:53 34 23 27 63 190° 8 - 30.13 30.18 10 CLR 6-hr Min Temp (1am): 33.1°F
6-hr Max Temp (1am): 37.9°F
2017-12-16 23:53 34 23 26 63 190° 10 - 30.14 30.19 10 CLR 24-hr Min Temp (12am): 26.1°F
24-hr Max Temp (12am): 39.9°F
2017-12-16 22:53 34 23 27 63 200° 9 - 30.12 30.17 10 CLR None
2017-12-16 21:53 35 23 29 61 200° 8 - 30.11 30.16 10 CLR None
2017-12-16 20:53 35 23 29 61 190° 8 - 30.11 30.16 10 CLR None
2017-12-16 19:53 37 23 32 56 210° 6 - 30.11 30.16 10 CLR None
2017-12-16 18:53 37 23 33 56 210° 5 - 30.09 30.14 10 CLR 6-hr Precip Total (7pm): 0.00"
6-hr Min Temp (7pm): 35.1°F
6-hr Max Temp (7pm): 39.9°F
2017-12-16 17:53 38 24 33 56 220° 6 - 30.06 30.11 10 CLR None
2017-12-16 16:53 39 24 35 54 230° 6 - 30.03 30.08 10 CLR None

Support USWX by starting your Amazon purchase here.